sensor_id;sensor_type;location;lat;lon;timestamp;pressure;altitude;pressure_sealevel;temperature;humidity
77869;BME280;67231;59.144;37.934;2023-12-28T00:01:47;99243.59;;;-5.49;77.44
77869;BME280;67231;59.144;37.934;2023-12-28T00:04:14;99247.94;;;-5.50;77.74
77869;BME280;67231;59.144;37.934;2023-12-28T00:06:41;99238.44;;;-5.49;77.34
77869;BME280;67231;59.144;37.934;2023-12-28T00:09:08;99243.53;;;-5.47;77.50
77869;BME280;67231;59.144;37.934;2023-12-28T00:11:36;99242.00;;;-5.52;77.50
77869;BME280;67231;59.144;37.934;2023-12-28T00:14:02;99251.44;;;-5.51;77.64
77869;BME280;67231;59.144;37.934;2023-12-28T00:16:31;99247.31;;;-5.55;77.30
77869;BME280;67231;59.144;37.934;2023-12-28T00:18:59;99250.66;;;-5.53;77.68
77869;BME280;67231;59.144;37.934;2023-12-28T00:21:26;99252.50;;;-5.55;77.79
77869;BME280;67231;59.144;37.934;2023-12-28T00:23:52;99255.91;;;-5.54;77.57
77869;BME280;67231;59.144;37.934;2023-12-28T00:26:19;99249.00;;;-5.54;77.54
77869;BME280;67231;59.144;37.934;2023-12-28T00:28:56;99260.25;;;-5.55;77.43
77869;BME280;67231;59.144;37.934;2023-12-28T00:31:23;99265.56;;;-5.58;77.43
77869;BME280;67231;59.144;37.934;2023-12-28T00:33:49;99270.72;;;-5.58;77.64
77869;BME280;67231;59.144;37.934;2023-12-28T00:36:16;99264.06;;;-5.63;77.71
77869;BME280;67231;59.144;37.934;2023-12-28T00:38:43;99268.53;;;-5.67;77.86
77869;BME280;67231;59.144;37.934;2023-12-28T00:41:09;99277.28;;;-5.70;77.86
77869;BME280;67231;59.144;37.934;2023-12-28T00:43:35;99267.72;;;-5.68;77.66
77869;BME280;67231;59.144;37.934;2023-12-28T00:46:02;99272.88;;;-5.68;77.58
77869;BME280;67231;59.144;37.934;2023-12-28T00:48:28;99278.25;;;-5.72;77.62
77869;BME280;67231;59.144;37.934;2023-12-28T00:50:55;99279.16;;;-5.73;77.66
77869;BME280;67231;59.144;37.934;2023-12-28T00:53:21;99286.06;;;-5.74;77.85
77869;BME280;67231;59.144;37.934;2023-12-28T00:55:48;99277.50;;;-5.74;77.72
77869;BME280;67231;59.144;37.934;2023-12-28T00:58:15;99284.31;;;-5.73;77.97
77869;BME280;67231;59.144;37.934;2023-12-28T01:00:42;99286.00;;;-5.72;78.13
77869;BME280;67231;59.144;37.934;2023-12-28T01:03:09;99290.41;;;-5.74;78.21
77869;BME280;67231;59.144;37.934;2023-12-28T01:05:35;99287.19;;;-5.79;77.66
77869;BME280;67231;59.144;37.934;2023-12-28T01:08:03;99296.72;;;-5.81;77.85
77869;BME280;67231;59.144;37.934;2023-12-28T01:10:30;99300.25;;;-5.82;77.63
77869;BME280;67231;59.144;37.934;2023-12-28T01:12:57;99299.50;;;-5.86;77.68
77869;BME280;67231;59.144;37.934;2023-12-28T01:15:25;99313.34;;;-5.87;77.82
77869;BME280;67231;59.144;37.934;2023-12-28T01:17:51;99312.63;;;-5.91;77.94
77869;BME280;67231;59.144;37.934;2023-12-28T01:20:18;99306.69;;;-5.93;78.01
77869;BME280;67231;59.144;37.934;2023-12-28T01:22:44;99318.84;;;-5.95;77.71
77869;BME280;67231;59.144;37.934;2023-12-28T01:25:11;99319.88;;;-5.99;77.95
77869;BME280;67231;59.144;37.934;2023-12-28T01:27:38;99321.72;;;-6.01;77.65
77869;BME280;67231;59.144;37.934;2023-12-28T01:30:05;99322.59;;;-6.02;77.40
77869;BME280;67231;59.144;37.934;2023-12-28T01:32:32;99317.56;;;-6.05;78.00
77869;BME280;67231;59.144;37.934;2023-12-28T01:34:59;99314.16;;;-6.06;78.35
77869;BME280;67231;59.144;37.934;2023-12-28T01:37:25;99323.59;;;-6.05;77.63
77869;BME280;67231;59.144;37.934;2023-12-28T01:39:56;99317.66;;;-6.07;77.59
77869;BME280;67231;59.144;37.934;2023-12-28T01:42:23;99310.09;;;-6.11;77.86
77869;BME280;67231;59.144;37.934;2023-12-28T01:44:50;99320.50;;;-6.13;77.56
77869;BME280;67231;59.144;37.934;2023-12-28T01:47:17;99323.00;;;-6.11;78.07
77869;BME280;67231;59.144;37.934;2023-12-28T01:49:44;99327.13;;;-6.07;77.66
77869;BME280;67231;59.144;37.934;2023-12-28T01:52:11;99333.06;;;-6.05;78.09
77869;BME280;67231;59.144;37.934;2023-12-28T01:54:37;99331.47;;;-6.08;77.70
77869;BME280;67231;59.144;37.934;2023-12-28T01:57:05;99335.81;;;-6.08;77.93
77869;BME280;67231;59.144;37.934;2023-12-28T01:59:32;99351.28;;;-6.08;77.79
77869;BME280;67231;59.144;37.934;2023-12-28T02:01:59;99355.78;;;-6.13;77.90
77869;BME280;67231;59.144;37.934;2023-12-28T02:04:26;99365.22;;;-6.12;77.96
77869;BME280;67231;59.144;37.934;2023-12-28T02:06:59;99366.09;;;-6.13;78.14
77869;BME280;67231;59.144;37.934;2023-12-28T02:09:26;99371.22;;;-6.12;78.23
77869;BME280;67231;59.144;37.934;2023-12-28T02:11:54;99375.44;;;-6.09;77.55
77869;BME280;67231;59.144;37.934;2023-12-28T02:14:22;99371.16;;;-6.10;77.69
77869;BME280;67231;59.144;37.934;2023-12-28T02:17:00;99366.78;;;-6.08;77.88
77869;BME280;67231;59.144;37.934;2023-12-28T02:19:44;99360.88;;;-6.12;77.38
77869;BME280;67231;59.144;37.934;2023-12-28T02:22:14;99374.72;;;-6.13;77.40
77869;BME280;67231;59.144;37.934;2023-12-28T02:27:41;99371.56;;;-6.19;77.64
77869;BME280;67231;59.144;37.934;2023-12-28T02:30:08;99381.06;;;-6.22;77.88
77869;BME280;67231;59.144;37.934;2023-12-28T02:35:32;99384.72;;;-6.26;78.18
77869;BME280;67231;59.144;37.934;2023-12-28T02:38:06;99390.88;;;-6.30;78.10
77869;BME280;67231;59.144;37.934;2023-12-28T02:40:42;99382.38;;;-6.32;78.17
77869;BME280;67231;59.144;37.934;2023-12-28T02:43:12;99399.50;;;-6.31;78.04
77869;BME280;67231;59.144;37.934;2023-12-28T02:45:39;99405.47;;;-6.29;77.96
77869;BME280;67231;59.144;37.934;2023-12-28T02:48:06;99412.97;;;-6.23;78.08
77869;BME280;67231;59.144;37.934;2023-12-28T02:50:33;99416.97;;;-6.15;78.19
77869;BME280;67231;59.144;37.934;2023-12-28T02:53:02;99417.44;;;-6.06;77.95
77869;BME280;67231;59.144;37.934;2023-12-28T02:55:28;99418.97;;;-6.00;77.82
77869;BME280;67231;59.144;37.934;2023-12-28T02:57:56;99416.09;;;-5.94;77.96
77869;BME280;67231;59.144;37.934;2023-12-28T03:00:26;99415.94;;;-5.91;78.12
77869;BME280;67231;59.144;37.934;2023-12-28T03:02:54;99418.41;;;-5.88;78.11
77869;BME280;67231;59.144;37.934;2023-12-28T03:05:20;99422.69;;;-5.87;78.14
77869;BME280;67231;59.144;37.934;2023-12-28T03:07:47;99430.38;;;-5.85;78.07
77869;BME280;67231;59.144;37.934;2023-12-28T03:10:13;99422.63;;;-5.85;78.28
77869;BME280;67231;59.144;37.934;2023-12-28T03:12:40;99425.91;;;-5.81;78.16
77869;BME280;67231;59.144;37.934;2023-12-28T03:15:07;99425.78;;;-5.78;77.86
77869;BME280;67231;59.144;37.934;2023-12-28T03:17:34;99418.66;;;-5.73;77.98
77869;BME280;67231;59.144;37.934;2023-12-28T03:20:03;99416.75;;;-5.68;77.92
77869;BME280;67231;59.144;37.934;2023-12-28T03:22:31;99420.03;;;-5.64;78.30
77869;BME280;67231;59.144;37.934;2023-12-28T03:24:57;99421.63;;;-5.62;78.27
77869;BME280;67231;59.144;37.934;2023-12-28T03:27:24;99423.31;;;-5.61;78.06
77869;BME280;67231;59.144;37.934;2023-12-28T03:29:50;99412.88;;;-5.58;77.98
77869;BME280;67231;59.144;37.934;2023-12-28T03:32:17;99418.81;;;-5.56;78.10
77869;BME280;67231;59.144;37.934;2023-12-28T03:34:43;99422.94;;;-5.52;77.80
77869;BME280;67231;59.144;37.934;2023-12-28T03:37:10;99419.31;;;-5.47;78.36
77869;BME280;67231;59.144;37.934;2023-12-28T03:39:37;99421.00;;;-5.46;77.63
77869;BME280;67231;59.144;37.934;2023-12-28T03:42:04;99425.16;;;-5.42;77.96
77869;BME280;67231;59.144;37.934;2023-12-28T03:44:30;99429.31;;;-5.40;77.80
77869;BME280;67231;59.144;37.934;2023-12-28T03:46:57;99431.78;;;-5.37;77.66
77869;BME280;67231;59.144;37.934;2023-12-28T03:49:24;99434.25;;;-5.34;77.73
77869;BME280;67231;59.144;37.934;2023-12-28T03:51:51;99427.31;;;-5.33;77.51
77869;BME280;67231;59.144;37.934;2023-12-28T03:54:19;99432.34;;;-5.30;77.35
77869;BME280;67231;59.144;37.934;2023-12-28T03:56:46;99430.56;;;-5.28;77.41
77869;BME280;67231;59.144;37.934;2023-12-28T03:59:13;99438.09;;;-5.23;77.15
77869;BME280;67231;59.144;37.934;2023-12-28T04:01:41;99422.38;;;-5.19;76.77
77869;BME280;67231;59.144;37.934;2023-12-28T04:04:08;99430.00;;;-5.16;76.87
77869;BME280;67231;59.144;37.934;2023-12-28T04:06:35;99445.38;;;-5.13;77.23
77869;BME280;67231;59.144;37.934;2023-12-28T04:09:01;99438.38;;;-5.10;77.33
77869;BME280;67231;59.144;37.934;2023-12-28T04:11:30;99440.00;;;-5.08;76.99
77869;BME280;67231;59.144;37.934;2023-12-28T04:13:57;99445.31;;;-5.11;77.12
77869;BME280;67231;59.144;37.934;2023-12-28T04:16:24;99448.75;;;-5.10;76.66
77869;BME280;67231;59.144;37.934;2023-12-28T04:18:50;99443.63;;;-5.12;77.03
77869;BME280;67231;59.144;37.934;2023-12-28T04:21:17;99452.13;;;-5.08;76.87
77869;BME280;67231;59.144;37.934;2023-12-28T04:23:44;99452.13;;;-5.08;77.09
77869;BME280;67231;59.144;37.934;2023-12-28T04:26:10;99461.59;;;-5.09;76.91
77869;BME280;67231;59.144;37.934;2023-12-28T04:28:37;99458.94;;;-5.07;76.81
77869;BME280;67231;59.144;37.934;2023-12-28T04:31:04;99468.47;;;-5.08;76.95
77869;BME280;67231;59.144;37.934;2023-12-28T04:33:31;99467.78;;;-5.12;76.75
77869;BME280;67231;59.144;37.934;2023-12-28T04:36:02;99467.69;;;-5.10;76.89
77869;BME280;67231;59.144;37.934;2023-12-28T04:38:30;99476.28;;;-5.09;76.89
77869;BME280;67231;59.144;37.934;2023-12-28T04:40:59;99472.09;;;-5.12;76.78
77869;BME280;67231;59.144;37.934;2023-12-28T04:43:26;99462.53;;;-5.10;77.11
77869;BME280;67231;59.144;37.934;2023-12-28T04:45:52;99463.44;;;-5.11;76.74
77869;BME280;67231;59.144;37.934;2023-12-28T04:48:19;99456.66;;;-5.14;77.01
77869;BME280;67231;59.144;37.934;2023-12-28T04:50:48;99464.41;;;-5.14;77.01
77869;BME280;67231;59.144;37.934;2023-12-28T04:53:15;99465.25;;;-5.13;76.87
77869;BME280;67231;59.144;37.934;2023-12-28T04:55:42;99464.41;;;-5.14;76.91
77869;BME280;67231;59.144;37.934;2023-12-28T04:58:12;99467.91;;;-5.15;76.82
77869;BME280;67231;59.144;37.934;2023-12-28T05:00:39;99466.22;;;-5.16;76.85
77869;BME280;67231;59.144;37.934;2023-12-28T05:03:06;99467.06;;;-5.15;76.82
77869;BME280;67231;59.144;37.934;2023-12-28T05:05:33;99468.03;;;-5.18;76.33
77869;BME280;67231;59.144;37.934;2023-12-28T05:07:59;99466.34;;;-5.19;77.08
77869;BME280;67231;59.144;37.934;2023-12-28T05:10:27;99469.78;;;-5.18;76.56
77869;BME280;67231;59.144;37.934;2023-12-28T05:12:53;99465.63;;;-5.22;76.98
77869;BME280;67231;59.144;37.934;2023-12-28T05:15:20;99472.63;;;-5.24;76.76
77869;BME280;67231;59.144;37.934;2023-12-28T05:17:46;99465.06;;;-5.29;76.66
77869;BME280;67231;59.144;37.934;2023-12-28T05:20:13;99480.59;;;-5.29;76.65
77869;BME280;67231;59.144;37.934;2023-12-28T05:22:40;99478.00;;;-5.29;76.29
77869;BME280;67231;59.144;37.934;2023-12-28T05:25:06;99477.09;;;-5.28;76.78
77869;BME280;67231;59.144;37.934;2023-12-28T05:27:33;99471.94;;;-5.28;76.42
77869;BME280;67231;59.144;37.934;2023-12-28T05:29:59;99470.25;;;-5.29;76.51
77869;BME280;67231;59.144;37.934;2023-12-28T05:32:26;99472.00;;;-5.29;76.39
77869;BME280;67231;59.144;37.934;2023-12-28T05:34:52;99479.75;;;-5.29;76.50
77869;BME280;67231;59.144;37.934;2023-12-28T05:37:19;99491.75;;;-5.28;76.14
77869;BME280;67231;59.144;37.934;2023-12-28T05:39:45;99485.81;;;-5.31;75.93
77869;BME280;67231;59.144;37.934;2023-12-28T05:42:12;99502.16;;;-5.30;76.04
77869;BME280;67231;59.144;37.934;2023-12-28T05:44:38;99487.44;;;-5.28;75.75
77869;BME280;67231;59.144;37.934;2023-12-28T05:47:05;99488.34;;;-5.29;75.74
77869;BME280;67231;59.144;37.934;2023-12-28T05:49:37;99502.97;;;-5.28;75.52
77869;BME280;67231;59.144;37.934;2023-12-28T05:52:03;99511.50;;;-5.26;76.11
77869;BME280;67231;59.144;37.934;2023-12-28T05:54:30;99517.63;;;-5.28;75.87
77869;BME280;67231;59.144;37.934;2023-12-28T05:56:56;99526.31;;;-5.29;75.73
77869;BME280;67231;59.144;37.934;2023-12-28T05:59:23;99526.31;;;-5.29;75.64
77869;BME280;67231;59.144;37.934;2023-12-28T06:01:52;99524.59;;;-5.31;75.73
77869;BME280;67231;59.144;37.934;2023-12-28T06:04:18;99522.84;;;-5.30;75.51
77869;BME280;67231;59.144;37.934;2023-12-28T06:06:45;99541.75;;;-5.28;75.27
77869;BME280;67231;59.144;37.934;2023-12-28T06:09:11;99537.34;;;-5.26;75.34
77869;BME280;67231;59.144;37.934;2023-12-28T06:11:38;99539.81;;;-5.23;75.42
77869;BME280;67231;59.144;37.934;2023-12-28T06:14:05;99535.41;;;-5.21;75.43
77869;BME280;67231;59.144;37.934;2023-12-28T06:16:31;99541.34;;;-5.19;75.47
77869;BME280;67231;59.144;37.934;2023-12-28T06:18:59;99538.81;;;-5.20;75.31
77869;BME280;67231;59.144;37.934;2023-12-28T06:21:26;99549.09;;;-5.19;75.30
77869;BME280;67231;59.144;37.934;2023-12-28T06:23:55;99542.13;;;-5.17;75.25
77869;BME280;67231;59.144;37.934;2023-12-28T06:26:22;99543.94;;;-5.19;75.67
77869;BME280;67231;59.144;37.934;2023-12-28T06:28:48;99540.56;;;-5.21;75.37
77869;BME280;67231;59.144;37.934;2023-12-28T06:31:15;99538.13;;;-5.24;75.39
77869;BME280;67231;59.144;37.934;2023-12-28T06:33:41;99532.03;;;-5.23;75.18
77869;BME280;67231;59.144;37.934;2023-12-28T06:36:08;99530.16;;;-5.19;75.34
77869;BME280;67231;59.144;37.934;2023-12-28T06:38:34;99536.16;;;-5.19;75.55
77869;BME280;67231;59.144;37.934;2023-12-28T06:41:01;99542.13;;;-5.17;75.25
77869;BME280;67231;59.144;37.934;2023-12-28T06:43:27;99546.31;;;-5.14;75.46
77869;BME280;67231;59.144;37.934;2023-12-28T06:45:54;99553.91;;;-5.09;75.35
77869;BME280;67231;59.144;37.934;2023-12-28T06:48:21;99543.47;;;-5.08;75.32
77869;BME280;67231;59.144;37.934;2023-12-28T06:50:47;99550.41;;;-5.08;75.14
77869;BME280;67231;59.144;37.934;2023-12-28T06:53:14;99553.75;;;-5.06;75.06
77869;BME280;67231;59.144;37.934;2023-12-28T06:55:40;99545.09;;;-5.05;75.30
77869;BME280;67231;59.144;37.934;2023-12-28T06:58:07;99549.22;;;-5.01;75.10
77869;BME280;67231;59.144;37.934;2023-12-28T07:00:33;99537.84;;;-4.97;74.98
77869;BME280;67231;59.144;37.934;2023-12-28T07:03:00;99551.50;;;-4.94;74.78
77869;BME280;67231;59.144;37.934;2023-12-28T07:05:27;99546.00;;;-4.86;75.05
77869;BME280;67231;59.144;37.934;2023-12-28T07:07:54;99553.56;;;-4.81;75.01
77869;BME280;67231;59.144;37.934;2023-12-28T07:10:20;99554.41;;;-4.81;75.38
77869;BME280;67231;59.144;37.934;2023-12-28T07:12:47;99559.50;;;-4.79;75.13
77869;BME280;67231;59.144;37.934;2023-12-28T07:15:13;99561.13;;;-4.77;74.97
77869;BME280;67231;59.144;37.934;2023-12-28T07:17:40;99553.44;;;-4.78;75.39
77869;BME280;67231;59.144;37.934;2023-12-28T07:20:08;99582.78;;;-4.79;74.99
77869;BME280;67231;59.144;37.934;2023-12-28T07:22:37;99546.56;;;-4.79;75.29
77869;BME280;67231;59.144;37.934;2023-12-28T07:25:07;99565.44;;;-4.77;75.27
77869;BME280;67231;59.144;37.934;2023-12-28T07:27:34;99562.78;;;-4.76;75.27
77869;BME280;67231;59.144;37.934;2023-12-28T07:30:01;99555.03;;;-4.76;75.46
77869;BME280;67231;59.144;37.934;2023-12-28T07:32:29;99573.78;;;-4.70;75.41
77869;BME280;67231;59.144;37.934;2023-12-28T07:34:56;99572.00;;;-4.68;75.40
77869;BME280;67231;59.144;37.934;2023-12-28T07:37:22;99566.81;;;-4.68;75.85
77869;BME280;67231;59.144;37.934;2023-12-28T07:39:49;99570.94;;;-4.64;75.51
77869;BME280;67231;59.144;37.934;2023-12-28T07:42:15;99565.50;;;-4.58;75.60
77869;BME280;67231;59.144;37.934;2023-12-28T07:44:42;99566.13;;;-4.53;75.59
77869;BME280;67231;59.144;37.934;2023-12-28T07:47:09;99546.34;;;-4.54;75.46
77869;BME280;67231;59.144;37.934;2023-12-28T07:49:35;99557.59;;;-4.55;75.58
77869;BME280;67231;59.144;37.934;2023-12-28T07:52:02;99567.88;;;-4.53;75.83
77869;BME280;67231;59.144;37.934;2023-12-28T07:54:28;99555.84;;;-4.54;75.63
77869;BME280;67231;59.144;37.934;2023-12-28T07:56:55;99574.81;;;-4.54;75.59
77869;BME280;67231;59.144;37.934;2023-12-28T07:59:21;99564.53;;;-4.55;75.41
77869;BME280;67231;59.144;37.934;2023-12-28T08:01:48;99562.69;;;-4.53;75.50
77869;BME280;67231;59.144;37.934;2023-12-28T08:04:14;99569.78;;;-4.57;75.59
77869;BME280;67231;59.144;37.934;2023-12-28T08:06:40;99554.38;;;-4.60;75.37
77869;BME280;67231;59.144;37.934;2023-12-28T08:09:07;99557.84;;;-4.61;75.63
77869;BME280;67231;59.144;37.934;2023-12-28T08:11:34;99563.09;;;-4.63;75.76
77869;BME280;67231;59.144;37.934;2023-12-28T08:14:01;99544.91;;;-4.61;75.60
77869;BME280;67231;59.144;37.934;2023-12-28T08:16:27;99548.06;;;-4.54;75.84
77869;BME280;67231;59.144;37.934;2023-12-28T08:18:54;99533.88;;;-4.46;75.81
77869;BME280;67231;59.144;37.934;2023-12-28T08:21:20;99550.94;;;-4.42;75.73
77869;BME280;67231;59.144;37.934;2023-12-28T08:23:47;99541.72;;;-4.47;75.71
77869;BME280;67231;59.144;37.934;2023-12-28T08:26:13;99545.47;;;-4.54;75.47
77869;BME280;67231;59.144;37.934;2023-12-28T08:28:40;99547.50;;;-4.61;75.68
77869;BME280;67231;59.144;37.934;2023-12-28T08:31:06;99547.56;;;-4.63;75.66
77869;BME280;67231;59.144;37.934;2023-12-28T08:33:35;99541.50;;;-4.62;75.77
77869;BME280;67231;59.144;37.934;2023-12-28T08:36:08;99541.50;;;-4.62;75.76
77869;BME280;67231;59.144;37.934;2023-12-28T08:38:35;99536.38;;;-4.63;75.66
77869;BME280;67231;59.144;37.934;2023-12-28T08:41:02;99541.56;;;-4.63;75.82
77869;BME280;67231;59.144;37.934;2023-12-28T08:43:29;99540.72;;;-4.64;75.86
77869;BME280;67231;59.144;37.934;2023-12-28T08:45:56;99544.91;;;-4.61;75.59
77869;BME280;67231;59.144;37.934;2023-12-28T08:48:22;99539.88;;;-4.64;75.60
77869;BME280;67231;59.144;37.934;2023-12-28T08:50:50;99539.25;;;-4.69;75.80
77869;BME280;67231;59.144;37.934;2023-12-28T08:53:17;99547.75;;;-4.67;75.80
77869;BME280;67231;59.144;37.934;2023-12-28T08:55:43;99543.53;;;-4.68;75.76
77869;BME280;67231;59.144;37.934;2023-12-28T08:58:09;99549.31;;;-4.63;75.90
77869;BME280;67231;59.144;37.934;2023-12-28T09:00:36;99543.09;;;-4.59;75.77
77869;BME280;67231;59.144;37.934;2023-12-28T09:03:02;99548.19;;;-4.58;75.75
77869;BME280;67231;59.144;37.934;2023-12-28T09:05:29;99545.47;;;-4.54;76.00
77869;BME280;67231;59.144;37.934;2023-12-28T09:07:55;99543.69;;;-4.52;75.77
77869;BME280;67231;59.144;37.934;2023-12-28T09:10:22;99543.69;;;-4.52;75.79
77869;BME280;67231;59.144;37.934;2023-12-28T09:12:48;99542.69;;;-4.50;75.92
77869;BME280;67231;59.144;37.934;2023-12-28T09:15:15;99528.78;;;-4.47;76.14
77869;BME280;67231;59.144;37.934;2023-12-28T09:17:41;99535.41;;;-4.42;76.03
77869;BME280;67231;59.144;37.934;2023-12-28T09:20:08;99534.44;;;-4.39;76.13
77869;BME280;67231;59.144;37.934;2023-12-28T09:22:35;99542.00;;;-4.34;76.21
77869;BME280;67231;59.144;37.934;2023-12-28T09:25:01;99538.28;;;-4.29;76.16
77869;BME280;67231;59.144;37.934;2023-12-28T09:27:30;99538.22;;;-4.27;76.06
77869;BME280;67231;59.144;37.934;2023-12-28T09:29:57;99536.56;;;-4.28;76.07
77869;BME280;67231;59.144;37.934;2023-12-28T09:32:23;99545.09;;;-4.26;76.07
77869;BME280;67231;59.144;37.934;2023-12-28T09:34:50;99539.63;;;-4.20;76.16
77869;BME280;67231;59.144;37.934;2023-12-28T09:37:16;99545.56;;;-4.18;76.28
77869;BME280;67231;59.144;37.934;2023-12-28T09:39:43;99546.31;;;-4.16;76.27
77869;BME280;67231;59.144;37.934;2023-12-28T09:42:25;99552.91;;;-4.09;75.93
77869;BME280;67231;59.144;37.934;2023-12-28T09:44:56;99549.25;;;-4.05;76.23
77869;BME280;67231;59.144;37.934;2023-12-28T09:47:23;99551.09;;;-4.07;76.38
77869;BME280;67231;59.144;37.934;2023-12-28T09:49:49;99545.78;;;-4.04;76.44
77869;BME280;67231;59.144;37.934;2023-12-28T09:52:16;99544.72;;;-3.99;76.82
77869;BME280;67231;59.144;37.934;2023-12-28T09:54:42;99548.84;;;-3.95;76.39
77869;BME280;67231;59.144;37.934;2023-12-28T09:57:09;99537.34;;;-3.90;76.28
77869;BME280;67231;59.144;37.934;2023-12-28T09:59:38;99547.66;;;-3.88;76.52
77869;BME280;67231;59.144;37.934;2023-12-28T10:02:04;99544.34;;;-3.92;76.54
77869;BME280;67231;59.144;37.934;2023-12-28T10:04:31;99547.88;;;-3.93;76.62
77869;BME280;67231;59.144;37.934;2023-12-28T10:06:58;99551.22;;;-3.91;76.78
77869;BME280;67231;59.144;37.934;2023-12-28T10:09:24;99546.84;;;-3.90;76.91
77869;BME280;67231;59.144;37.934;2023-12-28T10:11:54;99549.44;;;-3.90;76.69
77869;BME280;67231;59.144;37.934;2023-12-28T10:14:20;99554.56;;;-3.89;76.78
77869;BME280;67231;59.144;37.934;2023-12-28T10:16:47;99546.84;;;-3.90;76.90
77869;BME280;67231;59.144;37.934;2023-12-28T10:19:14;99559.06;;;-3.92;76.81
77869;BME280;67231;59.144;37.934;2023-12-28T10:21:41;99584.16;;;-3.93;76.62
77869;BME280;67231;59.144;37.934;2023-12-28T10:24:10;99554.03;;;-3.95;76.66
77869;BME280;67231;59.144;37.934;2023-12-28T10:26:36;99553.03;;;-3.93;76.37
77869;BME280;67231;59.144;37.934;2023-12-28T10:29:03;99565.94;;;-3.91;76.58
77869;BME280;67231;59.144;37.934;2023-12-28T10:31:30;99564.25;;;-3.92;76.74
77869;BME280;67231;59.144;37.934;2023-12-28T10:33:59;99569.50;;;-3.94;76.57
77869;BME280;67231;59.144;37.934;2023-12-28T10:36:28;99566.91;;;-3.94;76.54
77869;BME280;67231;59.144;37.934;2023-12-28T10:38:56;99572.91;;;-3.93;77.03
77869;BME280;67231;59.144;37.934;2023-12-28T10:41:24;99555.56;;;-3.91;76.75
77869;BME280;67231;59.144;37.934;2023-12-28T10:46:27;99556.47;;;-3.92;77.06
77869;BME280;67231;59.144;37.934;2023-12-28T10:49:18;99558.91;;;-3.89;76.93
77869;BME280;67231;59.144;37.934;2023-12-28T10:51:51;99562.41;;;-3.90;76.83
77869;BME280;67231;59.144;37.934;2023-12-28T10:57:04;99561.72;;;-3.94;76.97
77869;BME280;67231;59.144;37.934;2023-12-28T10:59:44;99563.63;;;-3.97;76.77
77869;BME280;67231;59.144;37.934;2023-12-28T11:02:16;99561.03;;;-3.97;77.07
77869;BME280;67231;59.144;37.934;2023-12-28T11:04:51;99553.25;;;-3.97;76.75
77869;BME280;67231;59.144;37.934;2023-12-28T11:07:20;99557.69;;;-3.99;76.52
77869;BME280;67231;59.144;37.934;2023-12-28T11:09:47;99553.34;;;-3.99;76.83
77869;BME280;67231;59.144;37.934;2023-12-28T11:12:16;99565.53;;;-4.01;77.15
77869;BME280;67231;59.144;37.934;2023-12-28T11:14:47;99567.25;;;-4.02;76.82
77869;BME280;67231;59.144;37.934;2023-12-28T11:17:17;99571.41;;;-3.97;77.09
77869;BME280;67231;59.144;37.934;2023-12-28T11:19:44;99547.25;;;-3.98;76.92
77869;BME280;67231;59.144;37.934;2023-12-28T11:22:11;99562.00;;;-4.00;76.96
77869;BME280;67231;59.144;37.934;2023-12-28T11:24:38;99549.97;;;-4.01;76.68
77869;BME280;67231;59.144;37.934;2023-12-28T11:27:05;99552.63;;;-4.03;76.94
77869;BME280;67231;59.144;37.934;2023-12-28T11:29:32;99558.66;;;-4.02;76.71
77869;BME280;67231;59.144;37.934;2023-12-28T11:32:00;99555.09;;;-3.99;77.03
77869;BME280;67231;59.144;37.934;2023-12-28T11:34:31;99544.72;;;-3.99;77.14
77869;BME280;67231;59.144;37.934;2023-12-28T11:37:00;99554.44;;;-4.05;76.96
77869;BME280;67231;59.144;37.934;2023-12-28T11:39:31;99566.56;;;-4.05;77.14
77869;BME280;67231;59.144;37.934;2023-12-28T11:42:06;99559.75;;;-4.08;76.99
77869;BME280;67231;59.144;37.934;2023-12-28T11:44:56;99557.34;;;-4.11;76.96
77869;BME280;67231;59.144;37.934;2023-12-28T11:47:24;99557.41;;;-4.12;77.04
77869;BME280;67231;59.144;37.934;2023-12-28T11:49:51;99557.34;;;-4.11;76.92
77869;BME280;67231;59.144;37.934;2023-12-28T11:52:30;99558.94;;;-4.08;77.16
77869;BME280;67231;59.144;37.934;2023-12-28T11:54:59;99546.75;;;-4.06;76.88
77869;BME280;67231;59.144;37.934;2023-12-28T11:57:26;99551.03;;;-4.05;76.90
77869;BME280;67231;59.144;37.934;2023-12-28T11:59:55;99544.22;;;-4.08;76.95
77869;BME280;67231;59.144;37.934;2023-12-28T12:02:22;99550.41;;;-4.10;76.94
77869;BME280;67231;59.144;37.934;2023-12-28T12:04:50;99540.72;;;-4.07;76.77
77869;BME280;67231;59.144;37.934;2023-12-28T12:07:16;99539.03;;;-4.08;76.80
77869;BME280;67231;59.144;37.934;2023-12-28T12:09:43;99536.63;;;-4.11;77.03
77869;BME280;67231;59.144;37.934;2023-12-28T12:12:11;99535.81;;;-4.13;76.87
77869;BME280;67231;59.144;37.934;2023-12-28T12:14:37;99540.09;;;-4.12;77.03
77869;BME280;67231;59.144;37.934;2023-12-28T12:17:04;99534.94;;;-4.12;76.92
77869;BME280;67231;59.144;37.934;2023-12-28T12:19:30;99536.69;;;-4.12;76.99
77869;BME280;67231;59.144;37.934;2023-12-28T12:21:57;99535.81;;;-4.13;76.95
77869;BME280;67231;59.144;37.934;2023-12-28T12:24:24;99535.06;;;-4.15;76.90
77869;BME280;67231;59.144;37.934;2023-12-28T12:26:51;99534.31;;;-4.17;76.93
77869;BME280;67231;59.144;37.934;2023-12-28T12:29:18;99552.44;;;-4.17;76.96
77869;BME280;67231;59.144;37.934;2023-12-28T12:31:47;99557.81;;;-4.22;77.21
77869;BME280;67231;59.144;37.934;2023-12-28T12:34:16;99548.28;;;-4.21;76.53
77869;BME280;67231;59.144;37.934;2023-12-28T12:36:43;99548.16;;;-4.18;76.77
77869;BME280;67231;59.144;37.934;2023-12-28T12:39:10;99542.97;;;-4.18;76.80
77869;BME280;67231;59.144;37.934;2023-12-28T12:41:40;99540.31;;;-4.16;77.12
77869;BME280;67231;59.144;37.934;2023-12-28T12:44:08;99541.94;;;-4.14;77.10
77869;BME280;67231;59.144;37.934;2023-12-28T12:46:36;99544.38;;;-4.11;76.80
77869;BME280;67231;59.144;37.934;2023-12-28T12:49:03;99541.63;;;-4.08;76.86
77869;BME280;67231;59.144;37.934;2023-12-28T12:51:30;99535.63;;;-4.08;76.94
77869;BME280;67231;59.144;37.934;2023-12-28T12:53:57;99534.66;;;-4.06;76.68
77869;BME280;67231;59.144;37.934;2023-12-28T12:56:26;99544.06;;;-4.05;76.68
77869;BME280;67231;59.144;37.934;2023-12-28T12:58:56;99548.34;;;-4.04;76.62
77869;BME280;67231;59.144;37.934;2023-12-28T13:01:23;99538.00;;;-4.04;76.58
77869;BME280;67231;59.144;37.934;2023-12-28T13:03:51;99542.28;;;-4.03;76.28